Hub


Voltar

 INFORMAÇÕES METEOROLÓGICAS

METAR FOR PASO


ADDS - METARS form results

(2050 UTC 16 February 2019)
Data provider http://aviationweather.gov/metar/data/
 
METAR text: PASO 161953Z AUTO 19003KT 8SM -SN FEW036 BKN070 OVC090 M02/M03 A3015 RMK AO2 UPB09E31SNB13E28B31 SLP209 P0001 T10171033 TSNO
Conditions at: PASO (SELDOVIA , AK, US) observed 1953 UTC 16 February 2019
Temperature: -1.7°C (29°F)
Dewpoint: -3.3°C (26°F) [RH = 89%]
Pressure (altimeter): 30.15 inches Hg (1021.1 mb)
[Sea-level pressure: 1020.9 mb]
Winds: from the S (190 degrees) at 3 MPH (3 knots; 1.5 m/s)
Visibility: 8 miles (13 km)
Ceiling: 7000 feet AGL
Clouds: few clouds at 3600 feet AGL
broken clouds at 7000 feet AGL
overcast cloud deck at 9000 feet AGL
Weather: -SN  (light snow)


 MAPA DO AEROPORTO


 INFORMAÇÕES DA PISTA

Pista 16 Tamanho da pista 1845 ft Largura da pista 60 ft
Elevação da pista 0 ft Ranhura da pista 0 ft Proa da pista 0
Pista 34 Tamanho da pista 1845 ft Largura da pista 60 ft
Elevação da pista 0 ft Ranhura da pista 0 ft Proa da pista 0

 FREQUÊNCIAS DO AEROPORTO


 AUXÍLIOS DE NAVEGAÇÃO PRÓXIMOS AO AEROPORTO